Time;durP1;ratioP1;P1;durP2;ratioP2;P2;SDS_P1;SDS_P2;PMS_P1;PMS_P2;Temp;Humidity;BMP_temperature;BMP_pressure;BME280_temperature;BME280_humidity;BME280_pressure;Samples;Min_cycle;Max_cycle;Signal;HPM_P1;HPM_P2
2022/06/07 00:00:34;;;;;;;118.60;47.65;;;;;;;11.67;100.00;101249.19;4935197;29;20279;-57
2022/06/07 00:03:00;;;;;;;127.68;48.90;;;;;;;11.68;100.00;101246.66;4935187;29;20035;-58
2022/06/07 00:05:27;;;;;;;119.93;47.40;;;;;;;11.68;100.00;101245.78;4934862;29;20040;-57
2022/06/07 00:07:54;;;;;;;124.88;48.47;;;;;;;11.68;100.00;101233.75;4935127;29;20028;-57
2022/06/07 00:10:22;;;;;;;125.28;50.08;;;;;;;11.67;100.00;101231.09;4935340;29;20032;-57
2022/06/07 00:12:48;;;;;;;135.13;52.75;;;;;;;11.67;100.00;101228.53;4934733;29;20040;-58
2022/06/07 00:15:14;;;;;;;126.63;52.20;;;;;;;11.67;100.00;101228.53;4936516;29;20115;-57
2022/06/07 00:17:40;;;;;;;137.38;53.22;;;;;;;11.66;100.00;101232.81;4938568;29;20079;-57
2022/06/07 00:20:07;;;;;;;126.45;51.22;;;;;;;11.68;100.00;101225.13;4938770;29;20379;-57
2022/06/07 00:22:34;;;;;;;134.88;53.17;;;;;;;11.67;100.00;101224.25;4938547;29;20059;-57
2022/06/07 00:24:59;;;;;;;139.00;51.10;;;;;;;11.66;100.00;101221.63;4938200;29;20028;-57
2022/06/07 00:27:25;;;;;;;132.52;52.40;;;;;;;11.68;100.00;101219.94;4938586;29;20518;-57
2022/06/07 00:29:50;;;;;;;124.50;53.30;;;;;;;11.68;100.00;101214.78;4938669;29;20104;-57
2022/06/07 00:32:18;;;;;;;126.30;52.15;;;;;;;11.69;100.00;101208.81;4937936;29;20503;-57
2022/06/07 00:34:44;;;;;;;132.48;53.72;;;;;;;11.68;100.00;101210.53;4938558;29;20031;-57
2022/06/07 00:37:09;;;;;;;129.45;51.53;;;;;;;11.68;100.00;101207.94;4938458;29;20063;-57
2022/06/07 00:39:35;;;;;;;132.10;54.97;;;;;;;11.68;100.00;101199.28;4938130;29;20119;-57
2022/06/07 00:42:00;;;;;;;136.23;53.58;;;;;;;11.69;100.00;101203.63;4938174;29;20035;-57
2022/06/07 00:44:25;;;;;;;142.27;54.85;;;;;;;11.68;100.00;101197.59;4938394;29;20316;-57
2022/06/07 00:46:55;;;;;;;139.97;53.27;;;;;;;11.68;100.00;101201.88;4937663;29;20039;-57
2022/06/07 00:49:22;;;;;;;139.20;53.80;;;;;;;11.69;100.00;101206.22;4938201;29;20287;-57
2022/06/07 00:51:48;;;;;;;148.77;56.35;;;;;;;11.67;100.00;101198.44;4938183;29;20456;-57
2022/06/07 00:54:21;;;;;;;128.88;53.88;;;;;;;11.68;100.00;101196.72;4937627;29;20547;-57
2022/06/07 00:56:46;;;;;;;143.60;54.13;;;;;;;11.68;100.00;101191.56;4938106;29;20079;-57
2022/06/07 00:59:11;;;;;;;143.65;55.28;;;;;;;11.67;100.00;101197.53;4937870;29;20035;-57
2022/06/07 01:01:37;;;;;;;129.25;52.45;;;;;;;11.67;100.00;101192.38;4937545;29;20031;-58
2022/06/07 01:04:02;;;;;;;148.18;53.38;;;;;;;11.68;100.00;101188.97;4937860;29;20032;-57
2022/06/07 01:11:55;;;;;;;113.93;49.13;;;;;;;11.68;100.00;101183.81;4937850;29;20416;-57
2022/06/07 01:14:20;;;;;;;119.03;50.38;;;;;;;11.69;100.00;101181.25;4937469;29;20484;-57
2022/06/07 01:16:46;;;;;;;116.25;47.25;;;;;;;11.70;100.00;101187.31;4937750;29;20024;-57
2022/06/07 01:19:11;;;;;;;106.55;47.05;;;;;;;11.69;100.00;101180.41;4937666;29;20472;-57
2022/06/07 01:21:41;;;;;;;110.45;46.05;;;;;;;11.70;100.00;101182.16;4937253;29;20085;-57
2022/06/07 01:24:07;;;;;;;110.88;47.13;;;;;;;11.70;100.00;101182.16;4937170;29;20070;-57
2022/06/07 01:26:32;;;;;;;92.97;43.40;;;;;;;11.69;100.00;101172.66;4936628;29;20028;-57
2022/06/07 01:28:58;;;;;;;96.30;44.75;;;;;;;11.71;100.00;101173.59;4937201;29;20031;-57
2022/06/07 01:31:23;;;;;;;101.68;44.20;;;;;;;11.69;100.00;101170.06;4937320;29;20020;-57
2022/06/07 01:33:48;;;;;;;91.03;41.58;;;;;;;11.71;100.00;101183.91;4937498;29;20436;-57
2022/06/07 01:36:16;;;;;;;91.35;41.03;;;;;;;11.71;100.00;101178.75;4936726;29;20028;-57
2022/06/07 01:38:44;;;;;;;91.75;42.83;;;;;;;11.69;100.00;101183.84;4937405;29;20030;-57
2022/06/07 01:43:55;;;;;;;90.93;40.78;;;;;;;11.65;100.00;101168.22;4937020;29;20051;-57
2022/06/07 01:46:21;;;;;;;92.13;40.88;;;;;;;11.62;100.00;101168.13;4937039;29;20464;-57
2022/06/07 01:48:48;;;;;;;77.07;38.55;;;;;;;11.62;100.00;101162.97;4937403;29;20059;-57
2022/06/07 01:51:15;;;;;;;86.45;39.63;;;;;;;11.61;100.00;101162.09;4936450;29;20023;-57
2022/06/07 01:53:40;;;;;;;79.70;38.60;;;;;;;11.58;100.00;101155.97;4936917;29;20074;-57
2022/06/07 01:56:10;;;;;;;86.85;38.20;;;;;;;11.55;100.00;101161.91;4937270;29;20114;-58
2022/06/07 01:58:37;;;;;;;80.78;37.72;;;;;;;11.55;100.00;101155.88;4937033;29;20031;-57
2022/06/07 02:01:03;;;;;;;76.35;36.90;;;;;;;11.52;100.00;101154.94;4936707;29;20547;-57
2022/06/07 02:03:29;;;;;;;75.40;35.35;;;;;;;11.51;100.00;101155.75;4936415;29;20199;-57
2022/06/07 02:06:02;;;;;;;84.80;33.92;;;;;;;11.51;100.00;101153.19;4936534;29;20047;-57
2022/06/07 02:08:28;;;;;;;68.97;33.03;;;;;;;11.49;100.00;101151.38;4937072;29;20020;-57
2022/06/07 02:10:54;;;;;;;70.20;32.72;;;;;;;11.48;100.00;101150.53;4936317;29;20038;-57
2022/06/07 02:13:20;;;;;;;68.43;32.00;;;;;;;11.48;100.00;101149.66;4936383;29;20491;-57
2022/06/07 02:15:47;;;;;;;68.20;32.28;;;;;;;11.47;100.00;101156.50;4936915;29;20035;-57
2022/06/07 02:18:13;;;;;;;70.47;30.73;;;;;;;11.47;100.00;101151.34;4935967;29;20039;-57
2022/06/07 02:20:39;;;;;;;61.30;29.45;;;;;;;11.47;100.00;101147.91;4936414;29;20036;-57
2022/06/07 02:23:05;;;;;;;64.93;30.30;;;;;;;11.47;100.00;101140.16;4936278;29;20511;-57
2022/06/07 02:25:35;;;;;;;62.13;30.65;;;;;;;11.46;100.00;101144.41;4936092;29;20039;-57
2022/06/07 02:28:01;;;;;;;56.25;30.67;;;;;;;11.44;100.00;101138.34;4936318;29;20107;-57
2022/06/07 02:30:26;;;;;;;62.33;30.50;;;;;;;11.45;100.00;101139.22;4936576;29;20111;-57
2022/06/07 02:32:52;;;;;;;60.33;28.58;;;;;;;11.41;100.00;101140.81;4935791;29;20108;-57
2022/06/07 02:35:18;;;;;;;59.78;28.45;;;;;;;11.41;100.00;101138.25;4935961;29;20024;-57
2022/06/07 02:37:43;;;;;;;52.53;26.67;;;;;;;11.41;100.00;101139.97;4936175;29;20036;-57
2022/06/07 02:40:09;;;;;;;57.70;26.60;;;;;;;11.36;100.00;101138.13;4935769;29;20035;-57
2022/06/07 02:42:35;;;;;;;50.83;27.92;;;;;;;11.36;100.00;101138.13;4936149;29;20063;-57
2022/06/07 02:45:00;;;;;;;50.67;26.27;;;;;;;11.36;100.00;101140.69;4936252;29;20083;-57
2022/06/07 02:47:26;;;;;;;56.80;26.33;;;;;;;11.34;100.00;101128.56;4935609;29;20392;-57
2022/06/07 02:49:52;;;;;;;57.53;26.02;;;;;;;11.33;100.00;101131.97;4935697;29;20031;-57
2022/06/07 02:52:18;;;;;;;55.92;24.52;;;;;;;11.32;100.00;101127.63;4936180;29;20102;-57
2022/06/07 02:54:43;;;;;;;46.05;25.30;;;;;;;11.31;100.00;101125.88;4935549;29;20051;-57
2022/06/07 02:57:08;;;;;;;45.53;23.58;;;;;;;11.28;100.00;101126.66;4936021;29;20746;-57
2022/06/07 02:59:33;;;;;;;56.30;24.83;;;;;;;11.28;100.00;101125.81;4935573;29;20098;-57
2022/06/07 03:01:59;;;;;;;49.08;23.45;;;;;;;11.27;100.00;101130.09;4935564;29;20379;-57
2022/06/07 03:04:24;;;;;;;50.88;24.08;;;;;;;11.24;100.00;101129.97;4935907;29;20027;-57
2022/06/07 03:06:49;;;;;;;42.05;22.80;;;;;;;11.23;100.00;101127.38;4935462;29;20024;-57
2022/06/07 03:09:15;;;;;;;39.92;20.70;;;;;;;11.20;100.00;101129.00;4935678;29;20028;-57
2022/06/07 03:11:40;;;;;;;37.28;21.10;;;;;;;11.18;100.00;101125.53;4935764;29;20043;-57
2022/06/07 03:14:05;;;;;;;43.38;21.95;;;;;;;11.15;100.00;101138.31;4935181;29;20035;-57
2022/06/07 03:16:31;;;;;;;42.63;21.08;;;;;;;11.12;100.00;101140.78;4935397;29;20060;-57
2022/06/07 03:18:57;;;;;;;44.60;21.00;;;;;;;11.11;100.00;101143.34;4935461;29;20034;-57
2022/06/07 03:21:22;;;;;;;44.90;21.90;;;;;;;11.10;100.00;101144.16;4935273;29;20023;-57
2022/06/07 03:23:47;;;;;;;44.47;20.35;;;;;;;11.07;100.00;101142.34;4935432;29;20059;-57
2022/06/07 03:26:13;;;;;;;45.30;21.48;;;;;;;11.06;100.00;101145.75;4935505;29;20052;-57
2022/06/07 03:28:39;;;;;;;40.90;20.20;;;;;;;11.05;100.00;101138.84;4934993;29;20395;-57
2022/06/07 03:31:12;;;;;;;39.35;21.17;;;;;;;11.04;100.00;101144.84;4935192;29;20078;-57
2022/06/07 03:33:37;;;;;;;36.83;18.83;;;;;;;11.04;100.00;101150.00;4935533;29;20082;-57
2022/06/07 03:36:09;;;;;;;42.30;20.30;;;;;;;11.03;99.89;101150.81;4935107;29;20110;-57
2022/06/07 03:38:35;;;;;;;39.55;19.73;;;;;;;11.03;99.82;101155.97;4935182;29;20492;-57
2022/06/07 03:41:01;;;;;;;39.50;18.40;;;;;;;11.03;99.86;101148.25;4935396;29;20058;-57
2022/06/07 03:43:26;;;;;;;41.70;18.02;;;;;;;11.03;99.57;101155.97;4934905;29;20039;-57
2022/06/07 03:45:51;;;;;;;44.30;18.52;;;;;;;11.03;99.88;101155.97;4935090;29;20023;-57
2022/06/07 03:48:17;;;;;;;36.63;18.63;;;;;;;11.04;99.65;101157.75;4935305;29;20031;-57
2022/06/07 03:50:42;;;;;;;37.65;18.45;;;;;;;11.03;99.22;101155.97;4937465;29;20039;-57
2022/06/07 03:53:07;;;;;;;36.72;18.63;;;;;;;11.04;99.46;101162.91;4939105;29;20032;-57
2022/06/07 03:55:33;;;;;;;41.28;18.75;;;;;;;11.03;99.65;101159.44;4939427;29;20043;-57
2022/06/07 03:57:58;;;;;;;34.25;18.33;;;;;;;11.03;99.01;101161.13;4938416;29;20416;-57
2022/06/07 04:00:24;;;;;;;39.35;18.52;;;;;;;11.03;99.37;101161.13;4939035;29;20498;-57
2022/06/07 04:02:49;;;;;;;43.67;18.45;;;;;;;11.03;99.11;101171.47;4938589;29;20035;-57
2022/06/07 04:05:14;;;;;;;43.03;18.77;;;;;;;11.03;97.82;101162.00;4938740;29;20024;-57
2022/06/07 04:10:23;;;;;;;37.95;18.05;;;;;;;11.07;98.76;101173.31;4938676;29;20034;-57
2022/06/07 04:12:49;;;;;;;38.90;17.98;;;;;;;11.09;98.86;101171.66;4938872;29;20392;-57
2022/06/07 04:15:14;;;;;;;39.78;18.48;;;;;;;11.09;98.41;101173.34;4938745;29;20028;-57
2022/06/07 04:17:39;;;;;;;39.53;18.63;;;;;;;11.09;98.01;101166.50;4938622;29;20042;-57
2022/06/07 04:20:05;;;;;;;41.30;19.25;;;;;;;11.09;98.75;101168.19;4938488;29;20028;-57
2022/06/07 04:22:31;;;;;;;38.63;18.15;;;;;;;11.10;98.66;101170.81;4938483;29;20463;-57
2022/06/07 04:24:56;;;;;;;42.95;18.90;;;;;;;11.12;98.60;101169.16;4938250;29;20538;-57
2022/06/07 04:27:21;;;;;;;32.65;18.08;;;;;;;11.14;98.61;101164.94;4938522;29;20031;-57
2022/06/07 04:29:47;;;;;;;43.00;18.95;;;;;;;11.15;98.80;101166.69;4938627;29;20024;-57
2022/06/07 04:32:12;;;;;;;38.65;19.05;;;;;;;11.15;98.43;101169.25;4937979;29;20055;-57
2022/06/07 04:34:38;;;;;;;40.72;19.40;;;;;;;11.15;98.11;101166.69;4938510;29;20062;-57
2022/06/07 04:37:05;;;;;;;40.55;19.02;;;;;;;11.17;98.83;101175.34;4938613;29;20369;-57
2022/06/07 04:39:31;;;;;;;45.67;20.00;;;;;;;11.20;98.47;101174.56;4938020;29;20408;-57
2022/06/07 04:41:57;;;;;;;36.80;19.33;;;;;;;11.23;97.99;101184.13;4938082;29;20107;-57
2022/06/07 04:44:22;;;;;;;48.42;19.23;;;;;;;11.26;99.31;101179.03;4938325;29;20027;-57
2022/06/07 04:46:49;;;;;;;37.95;19.20;;;;;;;11.31;98.15;101185.22;4937889;29;20436;-57
2022/06/07 04:49:14;;;;;;;39.67;19.33;;;;;;;11.33;97.96;101181.00;4938399;29;20086;-57
2022/06/07 04:51:40;;;;;;;35.53;19.05;;;;;;;11.36;97.30;101175.94;4938402;29;20036;-57
2022/06/07 04:54:05;;;;;;;38.03;18.50;;;;;;;11.41;98.13;101179.53;4937399;29;20028;-57
2022/06/07 04:56:35;;;;;;;43.55;19.70;;;;;;;11.42;97.53;101181.28;4938302;29;20494;-57
2022/06/07 04:59:03;;;;;;;43.95;20.40;;;;;;;11.47;97.92;101190.06;4937482;29;20059;-57
2022/06/07 05:01:38;;;;;;;40.60;20.20;;;;;;;11.50;97.74;101185.00;4937549;29;20036;-57
2022/06/07 05:04:04;;;;;;;38.10;19.85;;;;;;;11.56;97.65;101196.34;4938066;29;20070;-57
2022/06/07 05:06:35;;;;;;;45.85;21.25;;;;;;;11.61;97.62;101192.22;4937482;29;20395;-57
2022/06/07 05:09:04;;;;;;;40.92;20.05;;;;;;;11.64;97.37;101195.75;4937678;29;20028;-57
2022/06/07 05:11:29;;;;;;;45.45;22.00;;;;;;;11.71;97.52;101199.41;4937771;29;20031;-57
2022/06/07 05:13:56;;;;;;;46.30;21.38;;;;;;;11.79;97.13;101195.34;4937366;29;20395;-57
2022/06/07 05:16:22;;;;;;;50.78;22.70;;;;;;;11.82;96.55;101195.41;4937772;29;20535;-57
2022/06/07 05:18:48;;;;;;;49.03;23.15;;;;;;;11.81;96.80;101196.28;4937828;29;20024;-57
2022/06/07 05:21:14;;;;;;;45.40;22.95;;;;;;;11.88;96.36;101192.16;4937113;29;20031;-57
2022/06/07 05:23:39;;;;;;;49.38;22.83;;;;;;;11.90;96.13;101197.38;4937298;29;20056;-57
2022/06/07 05:26:10;;;;;;;53.92;23.20;;;;;;;11.94;95.66;101200.09;4937443;29;20082;-57
2022/06/07 05:28:38;;;;;;;48.70;22.35;;;;;;;12.04;95.93;101197.81;4937411;29;20039;-57
2022/06/07 05:31:04;;;;;;;45.95;22.23;;;;;;;12.09;95.67;101204.00;4937202;29;20055;-57
2022/06/07 05:33:29;;;;;;;47.08;23.30;;;;;;;12.12;94.16;101197.22;4937557;29;20140;-57
2022/06/07 05:35:56;;;;;;;45.00;21.70;;;;;;;12.13;94.30;101204.09;4936954;29;20075;-57
2022/06/07 05:38:21;;;;;;;46.22;22.40;;;;;;;12.15;95.28;101205.03;4937313;29;20091;-57
2022/06/07 05:40:47;;;;;;;43.92;21.80;;;;;;;12.15;94.77;101205.03;4937647;29;20031;-57
2022/06/07 05:43:12;;;;;;;44.78;23.85;;;;;;;12.15;94.01;101205.03;4936306;29;20444;-57
2022/06/07 05:45:38;;;;;;;52.00;24.02;;;;;;;12.18;95.27;101202.53;4937515;29;20031;-57
2022/06/07 05:48:04;;;;;;;48.42;23.63;;;;;;;12.25;95.85;101197.53;4937096;29;20028;-57
2022/06/07 05:50:30;;;;;;;47.80;23.20;;;;;;;12.29;94.89;101196.78;4936304;29;20039;-57
2022/06/07 05:52:55;;;;;;;51.13;24.92;;;;;;;12.30;94.85;101203.72;4937148;29;20483;-57
2022/06/07 05:55:20;;;;;;;65.45;24.83;;;;;;;12.30;94.39;101203.72;4936519;29;20027;-57
2022/06/07 05:57:50;;;;;;;58.20;24.90;;;;;;;12.30;93.84;101206.31;4937145;29;20020;-57
2022/06/07 06:00:17;;;;;;;50.25;23.67;;;;;;;12.28;94.13;101202.81;4936986;29;20479;-57
2022/06/07 06:02:43;;;;;;;48.40;23.70;;;;;;;12.28;94.23;101208.84;4936585;29;20102;-57
2022/06/07 06:05:09;;;;;;;52.97;24.50;;;;;;;12.30;94.51;101211.47;4936538;29;20453;-57
2022/06/07 06:07:35;;;;;;;48.25;24.60;;;;;;;12.36;94.38;101206.47;4936837;29;20054;-57
2022/06/07 06:12:44;;;;;;;60.03;23.85;;;;;;;12.54;94.41;101211.28;4936144;29;20085;-56
2022/06/07 06:15:10;;;;;;;46.55;24.40;;;;;;;12.63;94.13;101213.25;4936650;29;20047;-57
2022/06/07 06:17:35;;;;;;;49.45;23.75;;;;;;;12.62;93.10;101208.91;4936342;29;20035;-57
2022/06/07 06:20:00;;;;;;;66.68;26.10;;;;;;;12.74;92.87;101209.22;4936262;29;20074;-57
2022/06/07 06:22:26;;;;;;;49.65;23.60;;;;;;;12.93;93.81;101205.41;4936218;29;20057;-57
2022/06/07 06:24:51;;;;;;;54.92;25.67;;;;;;;13.04;92.97;101197.94;4935930;29;20027;-57
2022/06/07 06:27:18;;;;;;;55.35;26.08;;;;;;;13.14;91.82;101204.19;4936403;29;20019;-57
2022/06/07 06:29:43;;;;;;;60.15;27.15;;;;;;;13.24;92.51;101205.31;4936680;29;20083;-56
2022/06/07 06:32:08;;;;;;;60.60;26.52;;;;;;;13.31;92.54;101199.44;4935554;29;20448;-57
2022/06/07 06:34:34;;;;;;;60.35;28.55;;;;;;;13.28;91.66;101196.78;4936439;29;20027;-57
2022/06/07 06:36:59;;;;;;;64.18;27.83;;;;;;;13.27;91.95;101206.28;4936165;29;20035;-57
2022/06/07 06:39:24;;;;;;;62.03;29.05;;;;;;;13.24;92.38;101198.41;4935461;29;20035;-57
2022/06/07 06:41:50;;;;;;;61.55;29.70;;;;;;;13.27;92.96;101198.50;4936265;29;20032;-56
2022/06/07 06:44:16;;;;;;;72.20;30.05;;;;;;;13.34;92.81;101204.69;4936275;29;20028;-57
2022/06/07 06:46:46;;;;;;;65.60;30.65;;;;;;;13.44;93.36;101217.06;4935554;29;20046;-57
2022/06/07 06:49:15;;;;;;;74.78;31.95;;;;;;;13.66;94.46;101194.25;4935864;29;20062;-57
2022/06/07 06:51:42;;;;;;;65.97;31.42;;;;;;;13.78;91.39;101194.50;4935746;29;20027;-57
2022/06/07 06:54:11;;;;;;;88.40;34.25;;;;;;;13.89;91.10;101196.47;4935882;29;20027;-57
2022/06/07 06:56:37;;;;;;;68.53;32.00;;;;;;;14.08;91.89;101197.72;4936170;29;20027;-57
2022/06/07 06:59:02;;;;;;;77.30;33.60;;;;;;;14.29;91.61;101199.88;4935412;29;20031;-57
2022/06/07 07:01:32;;;;;;;80.50;33.58;;;;;;;14.44;90.07;101207.09;4935697;29;20020;-57
2022/06/07 07:03:59;;;;;;;76.20;35.28;;;;;;;14.56;89.29;101211.63;4935774;29;20486;-56
2022/06/07 07:06:25;;;;;;;81.13;34.30;;;;;;;14.64;90.07;101213.56;4935507;29;20035;-57
2022/06/07 07:08:50;;;;;;;72.43;34.17;;;;;;;14.59;87.53;101215.16;4935462;29;20476;-57
2022/06/07 07:11:21;;;;;;;79.32;35.47;;;;;;;14.58;88.48;101215.16;4935633;29;20068;-57
2022/06/07 07:13:48;;;;;;;73.47;32.65;;;;;;;14.51;88.50;101218.44;4934143;29;20526;-57
2022/06/07 07:16:17;;;;;;;75.82;35.67;;;;;;;14.54;88.49;101218.50;4935311;29;20031;-57
2022/06/07 07:18:43;;;;;;;83.20;36.90;;;;;;;14.46;89.54;101221.84;4935727;29;20115;-58
2022/06/07 07:21:13;;;;;;;82.47;37.30;;;;;;;14.43;89.00;101221.75;4935188;29;20111;-57
2022/06/07 07:23:38;;;;;;;86.38;38.50;;;;;;;14.43;90.34;101219.16;4935245;29;20396;-57
2022/06/07 07:26:07;;;;;;;85.55;37.20;;;;;;;14.58;90.19;101222.94;4935134;29;20035;-57
2022/06/07 07:28:38;;;;;;;77.30;37.92;;;;;;;14.68;88.93;101222.28;4934985;29;20115;-57
2022/06/07 07:31:06;;;;;;;79.68;37.10;;;;;;;14.89;88.40;101211.41;4935480;29;20020;-57
2022/06/07 07:33:32;;;;;;;71.25;33.92;;;;;;;15.08;87.47;101223.00;4935756;29;20036;-57
2022/06/07 07:36:00;;;;;;;76.65;35.17;;;;;;;15.27;87.10;101218.09;4934860;29;20040;-57
2022/06/07 07:38:25;;;;;;;70.88;34.13;;;;;;;15.28;86.92;101219.84;4935619;29;20027;-57
2022/06/07 07:40:51;;;;;;;65.63;33.95;;;;;;;15.26;84.52;101216.34;4934987;29;20036;-57
2022/06/07 07:43:17;;;;;;;71.28;38.63;;;;;;;15.12;83.21;101209.22;4935311;29;20114;-57
2022/06/07 07:45:43;;;;;;;70.40;36.58;;;;;;;15.11;84.11;101210.06;4935492;29;20078;-57
2022/06/07 07:48:09;;;;;;;74.15;38.22;;;;;;;15.19;85.49;101214.50;4934748;29;20550;-57
2022/06/07 07:50:36;;;;;;;85.78;40.90;;;;;;;15.24;84.47;101205.94;4935442;29;20042;-57
2022/06/07 07:53:01;;;;;;;80.07;43.13;;;;;;;15.27;83.43;101220.69;4935155;29;20032;-57
2022/06/07 07:55:27;;;;;;;89.13;42.35;;;;;;;15.34;83.68;101206.97;4934935;29;20031;-57
2022/06/07 07:57:52;;;;;;;81.55;41.13;;;;;;;15.47;82.90;101210.63;4935066;29;20026;-57
2022/06/07 08:00:18;;;;;;;89.63;42.38;;;;;;;15.66;83.48;101214.38;4935135;29;20036;-57
2022/06/07 08:02:43;;;;;;;79.75;42.92;;;;;;;15.85;82.75;101210.31;4934895;29;20036;-57
2022/06/07 08:05:10;;;;;;;89.18;45.90;;;;;;;15.88;81.23;101217.28;4935029;29;20027;-57
2022/06/07 08:07:36;;;;;;;93.13;47.47;;;;;;;15.94;80.13;101212.19;4935462;29;20032;-57
2022/06/07 08:10:02;;;;;;;88.05;45.65;;;;;;;15.98;80.28;101211.38;4934731;29;20036;-57
2022/06/07 08:12:28;;;;;;;88.22;45.88;;;;;;;16.01;80.58;101214.03;4934805;29;20098;-57
2022/06/07 08:14:53;;;;;;;88.63;43.55;;;;;;;15.96;80.44;101207.88;4935077;29;20527;-57
2022/06/07 08:17:18;;;;;;;86.45;45.78;;;;;;;15.96;81.99;101208.75;4934583;29;20464;-57
2022/06/07 08:19:44;;;;;;;87.78;45.95;;;;;;;15.92;81.47;101224.28;4935324;29;20030;-56
2022/06/07 08:22:09;;;;;;;81.25;45.65;;;;;;;15.91;80.82;101212.16;4935070;29;20031;-57
2022/06/07 08:24:35;;;;;;;83.15;43.38;;;;;;;15.93;79.99;101206.13;4934190;29;20079;-57
2022/06/07 08:27:00;;;;;;;89.63;46.88;;;;;;;16.04;80.77;101224.44;4935000;29;20392;-57
2022/06/07 08:29:26;;;;;;;89.30;46.22;;;;;;;16.19;80.76;101228.09;4934957;29;20111;-56
2022/06/07 08:31:51;;;;;;;93.15;48.50;;;;;;;16.21;80.81;101218.59;4934202;29;20395;-56
2022/06/07 08:39:45;;;;;;;99.97;49.80;;;;;;;16.13;80.48;101219.34;4938298;29;20067;-56
2022/06/07 08:42:14;;;;;;;82.40;47.80;;;;;;;16.17;79.87;101214.22;4938413;29;20020;-56
2022/06/07 08:44:45;;;;;;;93.70;50.85;;;;;;;16.26;80.18;101219.53;4937851;29;20032;-56
2022/06/07 08:47:44;;;;;;;91.28;48.83;;;;;;;16.28;79.79;101220.41;4938112;29;20028;-56
2022/06/07 08:50:21;;;;;;;96.57;50.30;;;;;;;16.41;80.21;101217.09;4937953;29;20040;-56
2022/06/07 08:52:51;;;;;;;87.45;49.17;;;;;;;16.60;79.44;101209.50;4937716;29;20036;-56
2022/06/07 08:55:21;;;;;;;87.63;49.22;;;;;;;16.85;79.69;101214.94;4938252;29;20032;-56
2022/06/07 08:58:21;;;;;;;87.55;46.80;;;;;;;17.16;79.34;101207.44;4938379;29;20024;-56
2022/06/07 09:00:58;;;;;;;79.50;46.40;;;;;;;17.39;76.98;101207.59;4922673;29;20103;-56
2022/06/07 09:03:55;;;;;;;76.95;43.40;;;;;;;17.71;75.94;101209.56;4938242;29;20111;-56
2022/06/07 09:06:29;;;;;;;76.43;44.45;;;;;;;17.92;74.99;101208.78;4934409;29;20492;-56
2022/06/07 09:08:57;;;;;;;80.15;45.72;;;;;;;17.85;72.60;101207.03;4937847;29;20039;-56
2022/06/07 09:14:24;;;;;;;74.85;43.33;;;;;;;17.61;74.90;101208.63;4937170;29;20090;-56
2022/06/07 09:16:49;;;;;;;76.80;44.58;;;;;;;17.64;75.01;101200.84;4937808;29;20130;-56
2022/06/07 09:19:20;;;;;;;79.30;45.88;;;;;;;17.78;75.16;101199.16;4937230;29;20028;-56
2022/06/07 09:21:48;;;;;;;71.13;43.85;;;;;;;17.97;72.06;101204.50;4937768;29;20028;-56
2022/06/07 09:24:25;;;;;;;75.57;45.42;;;;;;;18.27;72.99;101201.16;4937395;29;20043;-56
2022/06/07 09:26:51;;;;;;;79.28;45.92;;;;;;;18.31;70.01;101211.59;4937083;29;20055;-56
2022/06/07 09:29:23;;;;;;;74.70;45.80;;;;;;;18.10;69.06;101205.44;4937380;29;20399;-56
2022/06/07 09:31:50;;;;;;;77.85;44.53;;;;;;;18.13;70.78;101207.19;4937511;29;20024;-56
2022/06/07 09:34:28;;;;;;;81.55;46.15;;;;;;;18.28;71.63;101209.84;4936570;29;20024;-56
2022/06/07 09:37:02;;;;;;;78.95;46.53;;;;;;;18.37;69.57;101199.47;4937174;29;20028;-56
2022/06/07 09:39:32;;;;;;;77.18;46.00;;;;;;;18.64;71.82;101200.38;4937648;29;20028;-56
2022/06/07 09:42:26;;;;;;;75.25;45.72;;;;;;;18.89;69.28;101203.03;4936478;29;20098;-56
2022/06/07 09:44:54;;;;;;;67.32;44.53;;;;;;;18.81;67.36;101197.81;4934548;29;20048;-56
2022/06/07 09:47:23;;;;;;;68.85;41.67;;;;;;;18.71;67.15;101202.13;4936572;29;20123;-56
2022/06/07 09:49:59;;;;;;;66.38;41.42;;;;;;;18.63;66.39;101206.47;4937015;29;20028;-56
2022/06/07 09:52:29;;;;;;;68.53;41.40;;;;;;;19.04;67.96;101199.56;4937108;29;20043;-56
2022/06/07 09:55:01;;;;;;;62.08;40.22;;;;;;;19.37;66.56;101198.69;4936482;29;20484;-56
2022/06/07 09:57:39;;;;;;;64.25;40.50;;;;;;;20.03;67.32;101195.06;4936940;29;20035;-57
2022/06/07 10:00:19;;;;;;;60.42;36.95;;;;;;;20.51;64.25;101192.19;4936898;29;20388;-56
2022/06/07 10:02:55;;;;;;;62.03;40.03;;;;;;;20.62;62.47;101196.50;4936289;29;20040;-56
2022/06/07 10:05:31;;;;;;;55.53;36.33;;;;;;;20.57;59.45;101193.91;4936808;29;20439;-56
2022/06/07 10:08:14;;;;;;;49.25;34.53;;;;;;;20.51;61.10;101186.09;4936971;29;20051;-56
2022/06/07 10:10:52;;;;;;;51.30;32.45;;;;;;;20.39;62.66;101187.03;4936062;29;20423;-56
2022/06/07 10:13:41;;;;;;;45.95;29.63;;;;;;;20.61;59.99;101184.31;4936675;29;20095;-56
2022/06/07 10:16:35;;;;;;;45.17;29.35;;;;;;;20.76;59.75;101185.97;4936326;29;20035;-56
2022/06/07 10:19:25;;;;;;;45.40;29.10;;;;;;;20.95;58.41;101177.06;4936316;29;20039;-57
2022/06/07 10:22:02;;;;;;;38.83;27.63;;;;;;;20.79;57.54;101170.25;4936492;29;20071;-56
2022/06/07 10:24:39;;;;;;;40.72;26.25;;;;;;;21.22;55.60;101175.09;4935685;29;20051;-56
2022/06/07 10:27:05;;;;;;;35.28;23.77;;;;;;;21.77;54.82;101167.53;4936552;29;20035;-56
2022/06/07 10:29:58;;;;;;;31.30;22.23;;;;;;;22.20;54.23;101172.25;4936336;29;20032;-56
2022/06/07 10:32:36;;;;;;;34.00;23.42;;;;;;;22.12;51.92;101168.88;4936113;29;20312;-56
2022/06/07 10:35:11;;;;;;;35.65;22.65;;;;;;;22.71;51.47;101173.31;4936522;29;20043;-57
2022/06/07 10:37:46;;;;;;;33.63;21.63;;;;;;;23.25;49.51;101170.66;4935909;29;20503;-56
2022/06/07 10:40:26;;;;;;;30.27;20.73;;;;;;;23.05;49.92;101162.22;4936150;29;20070;-56
2022/06/07 10:42:59;;;;;;;34.08;22.08;;;;;;;22.11;50.82;101175.00;4936478;29;20032;-56
2022/06/07 10:45:32;;;;;;;32.83;21.33;;;;;;;21.75;53.64;101171.97;4935559;29;20098;-56
2022/06/07 10:48:04;;;;;;;30.77;21.67;;;;;;;22.24;51.68;101167.84;4936192;29;20035;-56
2022/06/07 10:50:41;;;;;;;27.63;20.40;;;;;;;22.76;50.32;101172.34;4936158;29;20050;-57
2022/06/07 10:53:22;;;;;;;27.63;19.83;;;;;;;23.32;49.42;101174.91;4935754;29;20027;-57
2022/06/07 10:55:53;;;;;;;28.17;19.40;;;;;;;23.87;48.52;101169.47;4936408;29;20027;-57
2022/06/07 10:58:32;;;;;;;30.08;21.65;;;;;;;23.93;45.80;101163.25;4935475;29;20028;-57
2022/06/07 11:01:06;;;;;;;32.92;22.23;;;;;;;23.91;46.97;101165.03;4935692;29;20054;-57
2022/06/07 11:03:46;;;;;;;32.20;22.25;;;;;;;23.61;46.86;101162.97;4936031;29;20028;-57
2022/06/07 11:09:20;;;;;;;35.03;20.80;;;;;;;23.66;49.40;101158.47;4935977;29;20043;-57
2022/06/07 11:11:48;;;;;;;31.40;20.70;;;;;;;23.31;47.66;101160.03;4935421;29;20035;-57
2022/06/07 11:14:22;;;;;;;33.60;24.30;;;;;;;23.00;48.84;101160.53;4935278;29;20477;-57
2022/06/07 11:17:11;;;;;;;31.50;22.40;;;;;;;22.79;50.95;101150.41;4935967;29;20024;-56
2022/06/07 11:19:36;;;;;;;30.88;22.02;;;;;;;22.48;48.59;101150.91;4932206;29;20090;-56
2022/06/07 11:22:05;;;;;;;30.77;21.08;;;;;;;22.33;49.25;101152.81;4935361;29;20492;-57
2022/06/07 11:24:34;;;;;;;28.75;20.40;;;;;;;22.03;49.94;101160.22;4935469;29;20050;-57
2022/06/07 11:27:14;;;;;;;31.70;20.85;;;;;;;21.91;50.65;101155.16;4935002;29;20031;-57
2022/06/07 11:29:40;;;;;;;38.75;20.90;;;;;;;21.57;51.67;101155.53;4935752;29;20476;-56
2022/06/07 11:32:48;;;;;;;26.17;19.00;;;;;;;21.80;51.13;101157.88;4935552;29;20070;-56
2022/06/07 11:35:45;;;;;;;24.50;15.63;;;;;;;22.06;52.29;101158.47;4935122;29;20044;-57
2022/06/07 11:38:17;;;;;;;23.07;13.60;;;;;;;22.06;49.32;101158.47;4935502;29;20039;-56